Fort Wayne International Airport Fort Wayne US
ICAO: KFWA
IATA: FWA
Category: Large
Scheduled Services: Yes

Elevation: 814 ft
TransAlt. 18000 ft.

Airport Communications:
APP/DEP:127.2
ATIS:121.25
CLNC DEL:124.75
GND:121.9
122FW COMD POST OPS:138.4
TERRE HAUTE RDO:122.2
TWR:119.1
UNICOM:122.95

KFWA Zoom In..

If you have problems with the map follow the link
https://www.worldairports.se/pages/airport.php?
ICAO=KFWA

Runways:

(A) RW 05 length 11981 ft width 150 ft
ILS 111.90 / hdg 47

(B) RW 09 length 4001 ft width 75 ft
---- / hdg 93

(C) RW 14 length 8002 ft width 150 ft
---- / hdg 138

(D) RW 23 length 11981 ft width 150 ft
---- / hdg 227

(E) RW 27 length 4001 ft width 75 ft
---- / hdg 273

(F) RW 32 length 8002 ft width 150 ft
ILS 109.90 / hdg 318

Location; KFWA
Day. 06 / Time. 02.54 Zulu
* Altimeter: 30.02
* Temperature: 03° c. 37.4°f.
* Wind from: 190° Speed 07 kn.
Dewpoint: -01° c.
Visibility: 10 Statute Miles.
Clouds: Broken 17000 ft.
Clouds: Broken 25000 ft.

KFWA 060254Z 19007KT 10SM BKN170 BKN250 03/M01 A3002 RMK AO2 SLP171 T00281011 55007


Wind From 190°
Speed 07 kn.

 
 
jpsmedia worldairports.se 2019   terms of use